sensor_id;sensor_type;location;lat;lon;timestamp;P1;durP1;ratioP1;P2;durP2;ratioP2
61739;SDS011;47645;45.288;12.038;2023-09-19T00:04:30;20.6;;;12.3;;
61739;SDS011;47645;45.288;12.038;2023-09-19T00:14:24;21.5;;;11.4;;
61739;SDS011;47645;45.288;12.038;2023-09-19T00:24:24;24.1;;;11.7;;
61739;SDS011;47645;45.288;12.038;2023-09-19T00:34:25;15.5;;;10.2;;
61739;SDS011;47645;45.288;12.038;2023-09-19T00:44:27;18.9;;;9.5;;
61739;SDS011;47645;45.288;12.038;2023-09-19T00:54:29;21.8;;;9.8;;
61739;SDS011;47645;45.288;12.038;2023-09-19T01:04:29;17.1;;;9.1;;
61739;SDS011;47645;45.288;12.038;2023-09-19T01:14:31;19.0;;;9.2;;
61739;SDS011;47645;45.288;12.038;2023-09-19T01:24:47;19.2;;;9.5;;
61739;SDS011;47645;45.288;12.038;2023-09-19T01:34:49;17.7;;;9.3;;
61739;SDS011;47645;45.288;12.038;2023-09-19T01:44:36;14.3;;;7.9;;
61739;SDS011;47645;45.288;12.038;2023-09-19T01:54:40;13.8;;;6.2;;
61739;SDS011;47645;45.288;12.038;2023-09-19T02:04:37;9.5;;;5.2;;
61739;SDS011;47645;45.288;12.038;2023-09-19T02:14:38;9.2;;;5.3;;
61739;SDS011;47645;45.288;12.038;2023-09-19T02:24:39;16.3;;;7.3;;
61739;SDS011;47645;45.288;12.038;2023-09-19T02:34:42;15.1;;;6.2;;
61739;SDS011;47645;45.288;12.038;2023-09-19T02:44:42;16.9;;;7.1;;
61739;SDS011;47645;45.288;12.038;2023-09-19T02:54:45;12.5;;;5.0;;
61739;SDS011;47645;45.288;12.038;2023-09-19T03:04:47;9.1;;;4.7;;
61739;SDS011;47645;45.288;12.038;2023-09-19T03:14:46;12.5;;;5.7;;
61739;SDS011;47645;45.288;12.038;2023-09-19T03:24:47;9.9;;;5.1;;
61739;SDS011;47645;45.288;12.038;2023-09-19T03:34:48;17.9;;;6.0;;
61739;SDS011;47645;45.288;12.038;2023-09-19T03:44:49;18.1;;;5.6;;
61739;SDS011;47645;45.288;12.038;2023-09-19T03:54:51;13.7;;;5.6;;
61739;SDS011;47645;45.288;12.038;2023-09-19T04:04:52;15.4;;;5.5;;
61739;SDS011;47645;45.288;12.038;2023-09-19T04:14:53;13.8;;;4.9;;
61739;SDS011;47645;45.288;12.038;2023-09-19T04:24:54;17.1;;;5.0;;
61739;SDS011;47645;45.288;12.038;2023-09-19T04:35:00;13.7;;;4.6;;
61739;SDS011;47645;45.288;12.038;2023-09-19T04:44:57;11.2;;;5.1;;
61739;SDS011;47645;45.288;12.038;2023-09-19T04:54:59;9.1;;;3.8;;
61739;SDS011;47645;45.288;12.038;2023-09-19T05:05:00;8.9;;;3.9;;
61739;SDS011;47645;45.288;12.038;2023-09-19T05:15:01;10.2;;;4.2;;
61739;SDS011;47645;45.288;12.038;2023-09-19T05:25:05;10.0;;;4.7;;
61739;SDS011;47645;45.288;12.038;2023-09-19T05:35:04;20.2;;;7.0;;
61739;SDS011;47645;45.288;12.038;2023-09-19T05:40:08;20.7;;;6.2;;
61739;SDS011;47645;45.288;12.038;2023-09-19T05:50:08;13.5;;;5.2;;
61739;SDS011;47645;45.288;12.038;2023-09-19T06:00:09;15.3;;;6.7;;
61739;SDS011;47645;45.288;12.038;2023-09-19T06:10:09;18.8;;;6.7;;
61739;SDS011;47645;45.288;12.038;2023-09-19T06:20:13;17.4;;;7.4;;
61739;SDS011;47645;45.288;12.038;2023-09-19T06:30:11;17.3;;;6.5;;
61739;SDS011;47645;45.288;12.038;2023-09-19T06:40:14;15.6;;;6.5;;
61739;SDS011;47645;45.288;12.038;2023-09-19T06:50:14;20.6;;;7.6;;
61739;SDS011;47645;45.288;12.038;2023-09-19T07:00:18;20.7;;;7.7;;
61739;SDS011;47645;45.288;12.038;2023-09-19T07:10:16;15.9;;;7.7;;
61739;SDS011;47645;45.288;12.038;2023-09-19T07:20:17;16.9;;;6.6;;
61739;SDS011;47645;45.288;12.038;2023-09-19T07:30:18;15.0;;;6.9;;
61739;SDS011;47645;45.288;12.038;2023-09-19T07:40:20;16.2;;;6.5;;
61739;SDS011;47645;45.288;12.038;2023-09-19T07:50:20;16.4;;;5.3;;
61739;SDS011;47645;45.288;12.038;2023-09-19T08:00:22;20.2;;;6.4;;
61739;SDS011;47645;45.288;12.038;2023-09-19T08:10:27;15.9;;;6.3;;
61739;SDS011;47645;45.288;12.038;2023-09-19T08:20:24;14.6;;;4.8;;
61739;SDS011;47645;45.288;12.038;2023-09-19T08:40:29;19.2;;;6.0;;
61739;SDS011;47645;45.288;12.038;2023-09-19T08:50:28;20.5;;;6.9;;
61739;SDS011;47645;45.288;12.038;2023-09-19T09:00:30;18.0;;;6.1;;
61739;SDS011;47645;45.288;12.038;2023-09-19T09:10:31;11.0;;;3.8;;
61739;SDS011;47645;45.288;12.038;2023-09-19T09:20:32;12.2;;;4.9;;
61739;SDS011;47645;45.288;12.038;2023-09-19T09:30:34;11.7;;;3.9;;
61739;SDS011;47645;45.288;12.038;2023-09-19T09:40:46;14.8;;;4.3;;
61739;SDS011;47645;45.288;12.038;2023-09-19T09:50:46;13.6;;;4.9;;
61739;SDS011;47645;45.288;12.038;2023-09-19T10:00:51;13.1;;;4.7;;
61739;SDS011;47645;45.288;12.038;2023-09-19T10:10:53;16.8;;;4.4;;
61739;SDS011;47645;45.288;12.038;2023-09-19T10:20:45;10.1;;;3.6;;
61739;SDS011;47645;45.288;12.038;2023-09-19T10:30:45;12.0;;;3.8;;
61739;SDS011;47645;45.288;12.038;2023-09-19T10:40:48;11.8;;;3.8;;
61739;SDS011;47645;45.288;12.038;2023-09-19T10:50:48;15.0;;;4.3;;
61739;SDS011;47645;45.288;12.038;2023-09-19T11:00:50;13.0;;;3.3;;
61739;SDS011;47645;45.288;12.038;2023-09-19T11:10:51;9.0;;;3.0;;
61739;SDS011;47645;45.288;12.038;2023-09-19T11:20:56;10.4;;;2.9;;
61739;SDS011;47645;45.288;12.038;2023-09-19T11:30:54;11.6;;;2.9;;
61739;SDS011;47645;45.288;12.038;2023-09-19T11:41:36;10.5;;;3.0;;
61739;SDS011;47645;45.288;12.038;2023-09-19T11:50:57;10.0;;;3.0;;
61739;SDS011;47645;45.288;12.038;2023-09-19T12:01:00;12.2;;;2.9;;
61739;SDS011;47645;45.288;12.038;2023-09-19T12:11:01;9.9;;;2.4;;
61739;SDS011;47645;45.288;12.038;2023-09-19T12:21:05;10.4;;;3.1;;
61739;SDS011;47645;45.288;12.038;2023-09-19T12:31:08;7.1;;;2.0;;
61739;SDS011;47645;45.288;12.038;2023-09-19T12:41:10;9.7;;;2.8;;
61739;SDS011;47645;45.288;12.038;2023-09-19T12:51:10;9.2;;;2.4;;
61739;SDS011;47645;45.288;12.038;2023-09-19T13:01:14;10.0;;;2.4;;
61739;SDS011;47645;45.288;12.038;2023-09-19T13:11:13;7.9;;;2.1;;
61739;SDS011;47645;45.288;12.038;2023-09-19T13:21:33;6.6;;;2.1;;
61739;SDS011;47645;45.288;12.038;2023-09-19T13:31:16;6.0;;;1.8;;
61739;SDS011;47645;45.288;12.038;2023-09-19T13:41:18;7.9;;;2.3;;
61739;SDS011;47645;45.288;12.038;2023-09-19T13:51:21;8.2;;;2.5;;
61739;SDS011;47645;45.288;12.038;2023-09-19T14:01:23;11.8;;;2.4;;
61739;SDS011;47645;45.288;12.038;2023-09-19T14:11:25;7.3;;;2.2;;
61739;SDS011;47645;45.288;12.038;2023-09-19T14:21:26;7.5;;;1.8;;
61739;SDS011;47645;45.288;12.038;2023-09-19T14:31:28;5.9;;;1.9;;
61739;SDS011;47645;45.288;12.038;2023-09-19T14:41:31;6.0;;;2.1;;
61739;SDS011;47645;45.288;12.038;2023-09-19T14:51:32;6.3;;;2.2;;
61739;SDS011;47645;45.288;12.038;2023-09-19T15:01:34;6.6;;;1.8;;
61739;SDS011;47645;45.288;12.038;2023-09-19T15:11:36;4.7;;;1.5;;
61739;SDS011;47645;45.288;12.038;2023-09-19T15:21:38;8.6;;;2.2;;
61739;SDS011;47645;45.288;12.038;2023-09-19T15:31:40;7.2;;;2.2;;
61739;SDS011;47645;45.288;12.038;2023-09-19T15:41:44;9.0;;;2.5;;
61739;SDS011;47645;45.288;12.038;2023-09-19T15:51:44;8.9;;;2.9;;
61739;SDS011;47645;45.288;12.038;2023-09-19T16:01:46;7.7;;;2.6;;
61739;SDS011;47645;45.288;12.038;2023-09-19T16:11:49;12.0;;;2.8;;
61739;SDS011;47645;45.288;12.038;2023-09-19T16:21:49;8.6;;;2.6;;
61739;SDS011;47645;45.288;12.038;2023-09-19T16:31:52;13.1;;;2.8;;
61739;SDS011;47645;45.288;12.038;2023-09-19T16:41:53;9.6;;;3.3;;
61739;SDS011;47645;45.288;12.038;2023-09-19T16:51:54;10.1;;;2.0;;
61739;SDS011;47645;45.288;12.038;2023-09-19T17:01:58;3.9;;;1.6;;
61739;SDS011;47645;45.288;12.038;2023-09-19T17:11:59;3.8;;;1.4;;
61739;SDS011;47645;45.288;12.038;2023-09-19T17:22:00;5.8;;;2.2;;
61739;SDS011;47645;45.288;12.038;2023-09-19T17:32:03;4.6;;;1.9;;
61739;SDS011;47645;45.288;12.038;2023-09-19T17:42:05;5.0;;;1.7;;
61739;SDS011;47645;45.288;12.038;2023-09-19T17:52:05;4.2;;;2.0;;
61739;SDS011;47645;45.288;12.038;2023-09-19T18:02:07;9.2;;;2.8;;
61739;SDS011;47645;45.288;12.038;2023-09-19T18:12:08;6.5;;;2.6;;
61739;SDS011;47645;45.288;12.038;2023-09-19T18:22:11;4.8;;;1.9;;
61739;SDS011;47645;45.288;12.038;2023-09-19T18:32:10;15.7;;;4.5;;
61739;SDS011;47645;45.288;12.038;2023-09-19T18:42:12;13.0;;;4.1;;
61739;SDS011;47645;45.288;12.038;2023-09-19T18:52:14;12.7;;;4.8;;
61739;SDS011;47645;45.288;12.038;2023-09-19T19:02:16;16.9;;;6.3;;
61739;SDS011;47645;45.288;12.038;2023-09-19T19:12:17;15.6;;;5.2;;
61739;SDS011;47645;45.288;12.038;2023-09-19T19:22:19;9.9;;;3.9;;
61739;SDS011;47645;45.288;12.038;2023-09-19T19:32:25;9.3;;;4.9;;
61739;SDS011;47645;45.288;12.038;2023-09-19T19:42:21;10.7;;;4.2;;
61739;SDS011;47645;45.288;12.038;2023-09-19T19:52:24;7.7;;;3.2;;
61739;SDS011;47645;45.288;12.038;2023-09-19T20:02:24;9.4;;;4.4;;
61739;SDS011;47645;45.288;12.038;2023-09-19T20:12:26;7.5;;;3.1;;
61739;SDS011;47645;45.288;12.038;2023-09-19T20:22:27;10.6;;;4.0;;
61739;SDS011;47645;45.288;12.038;2023-09-19T20:32:29;7.5;;;3.9;;
61739;SDS011;47645;45.288;12.038;2023-09-19T20:42:29;7.9;;;4.1;;
61739;SDS011;47645;45.288;12.038;2023-09-19T20:52:31;8.5;;;4.2;;
61739;SDS011;47645;45.288;12.038;2023-09-19T21:02:33;7.3;;;4.0;;
61739;SDS011;47645;45.288;12.038;2023-09-19T21:12:33;9.4;;;4.6;;
61739;SDS011;47645;45.288;12.038;2023-09-19T21:22:36;11.0;;;5.1;;
61739;SDS011;47645;45.288;12.038;2023-09-19T21:32:36;11.6;;;5.6;;
61739;SDS011;47645;45.288;12.038;2023-09-19T21:42:37;14.4;;;6.5;;
61739;SDS011;47645;45.288;12.038;2023-09-19T21:52:39;13.4;;;5.5;;
61739;SDS011;47645;45.288;12.038;2023-09-19T22:02:40;16.0;;;6.2;;
61739;SDS011;47645;45.288;12.038;2023-09-19T22:12:42;13.2;;;6.3;;
61739;SDS011;47645;45.288;12.038;2023-09-19T22:22:43;15.5;;;7.8;;
61739;SDS011;47645;45.288;12.038;2023-09-19T22:32:45;16.0;;;6.8;;
61739;SDS011;47645;45.288;12.038;2023-09-19T22:42:48;11.9;;;6.4;;
61739;SDS011;47645;45.288;12.038;2023-09-19T22:52:50;19.0;;;6.9;;
61739;SDS011;47645;45.288;12.038;2023-09-19T23:02:48;16.4;;;7.0;;
61739;SDS011;47645;45.288;12.038;2023-09-19T23:12:50;14.5;;;7.6;;
61739;SDS011;47645;45.288;12.038;2023-09-19T23:22:54;17.3;;;7.7;;
61739;SDS011;47645;45.288;12.038;2023-09-19T23:32:52;14.6;;;8.4;;
61739;SDS011;47645;45.288;12.038;2023-09-19T23:42:55;16.5;;;8.0;;
61739;SDS011;47645;45.288;12.038;2023-09-19T23:52:55;14.7;;;7.5;;
